sensor_id;sensor_type;location;lat;lon;timestamp;P1;durP1;ratioP1;P2;durP2;ratioP2
15776;SDS011;7989;51.198;6.676;2022-08-19T00:00:48;7.95;;;7.25;;
15776;SDS011;7989;51.198;6.676;2022-08-19T00:03:15;7.72;;;7.03;;
15776;SDS011;7989;51.198;6.676;2022-08-19T00:05:44;8.50;;;7.65;;
15776;SDS011;7989;51.198;6.676;2022-08-19T00:08:11;8.00;;;7.50;;
15776;SDS011;7989;51.198;6.676;2022-08-19T00:10:37;9.13;;;8.32;;
15776;SDS011;7989;51.198;6.676;2022-08-19T00:13:04;8.90;;;8.10;;
15776;SDS011;7989;51.198;6.676;2022-08-19T00:15:31;8.93;;;8.13;;
15776;SDS011;7989;51.198;6.676;2022-08-19T00:17:58;8.50;;;7.90;;
15776;SDS011;7989;51.198;6.676;2022-08-19T00:20:25;8.75;;;8.05;;
15776;SDS011;7989;51.198;6.676;2022-08-19T00:22:53;8.57;;;7.88;;
15776;SDS011;7989;51.198;6.676;2022-08-19T00:25:20;9.90;;;8.93;;
15776;SDS011;7989;51.198;6.676;2022-08-19T00:27:48;8.85;;;8.15;;
15776;SDS011;7989;51.198;6.676;2022-08-19T00:30:16;9.38;;;8.48;;
15776;SDS011;7989;51.198;6.676;2022-08-19T00:32:43;9.88;;;9.00;;
15776;SDS011;7989;51.198;6.676;2022-08-19T00:35:10;10.75;;;9.20;;
15776;SDS011;7989;51.198;6.676;2022-08-19T00:37:36;9.70;;;8.77;;
15776;SDS011;7989;51.198;6.676;2022-08-19T00:40:10;9.50;;;8.68;;
15776;SDS011;7989;51.198;6.676;2022-08-19T00:42:38;10.25;;;9.35;;
15776;SDS011;7989;51.198;6.676;2022-08-19T00:45:09;10.00;;;9.10;;
15776;SDS011;7989;51.198;6.676;2022-08-19T00:47:37;10.20;;;9.35;;
15776;SDS011;7989;51.198;6.676;2022-08-19T00:50:04;9.80;;;9.05;;
15776;SDS011;7989;51.198;6.676;2022-08-19T00:52:35;10.02;;;9.13;;
15776;SDS011;7989;51.198;6.676;2022-08-19T00:55:06;10.65;;;9.80;;
15776;SDS011;7989;51.198;6.676;2022-08-19T00:57:37;10.23;;;9.40;;
15776;SDS011;7989;51.198;6.676;2022-08-19T01:00:07;10.63;;;9.82;;
15776;SDS011;7989;51.198;6.676;2022-08-19T01:02:36;9.57;;;8.88;;
15776;SDS011;7989;51.198;6.676;2022-08-19T01:05:05;10.95;;;9.90;;
15776;SDS011;7989;51.198;6.676;2022-08-19T01:07:35;11.30;;;10.40;;
15776;SDS011;7989;51.198;6.676;2022-08-19T01:10:05;10.75;;;9.85;;
15776;SDS011;7989;51.198;6.676;2022-08-19T01:12:36;11.18;;;10.15;;
15776;SDS011;7989;51.198;6.676;2022-08-19T01:15:04;10.90;;;10.00;;
15776;SDS011;7989;51.198;6.676;2022-08-19T01:17:33;11.02;;;10.02;;
15776;SDS011;7989;51.198;6.676;2022-08-19T01:20:01;11.35;;;10.45;;
15776;SDS011;7989;51.198;6.676;2022-08-19T01:22:30;11.48;;;10.57;;
15776;SDS011;7989;51.198;6.676;2022-08-19T01:25:02;12.07;;;11.07;;
15776;SDS011;7989;51.198;6.676;2022-08-19T01:27:36;12.30;;;11.38;;
15776;SDS011;7989;51.198;6.676;2022-08-19T01:30:05;12.57;;;11.57;;
15776;SDS011;7989;51.198;6.676;2022-08-19T01:32:34;12.48;;;11.57;;
15776;SDS011;7989;51.198;6.676;2022-08-19T01:35:01;12.85;;;11.85;;
15776;SDS011;7989;51.198;6.676;2022-08-19T01:37:40;14.30;;;13.20;;
15776;SDS011;7989;51.198;6.676;2022-08-19T01:40:09;12.90;;;11.82;;
15776;SDS011;7989;51.198;6.676;2022-08-19T01:42:36;12.63;;;11.63;;
15776;SDS011;7989;51.198;6.676;2022-08-19T01:45:03;14.00;;;12.68;;
15776;SDS011;7989;51.198;6.676;2022-08-19T01:47:33;13.38;;;12.38;;
15776;SDS011;7989;51.198;6.676;2022-08-19T01:50:00;13.20;;;12.10;;
15776;SDS011;7989;51.198;6.676;2022-08-19T01:52:27;13.63;;;12.55;;
15776;SDS011;7989;51.198;6.676;2022-08-19T01:54:55;13.98;;;13.07;;
15776;SDS011;7989;51.198;6.676;2022-08-19T01:57:22;14.25;;;13.15;;
15776;SDS011;7989;51.198;6.676;2022-08-19T01:59:49;14.35;;;13.25;;
15776;SDS011;7989;51.198;6.676;2022-08-19T02:02:16;15.20;;;13.95;;
15776;SDS011;7989;51.198;6.676;2022-08-19T02:04:43;15.05;;;13.90;;
15776;SDS011;7989;51.198;6.676;2022-08-19T02:07:10;16.65;;;15.20;;
15776;SDS011;7989;51.198;6.676;2022-08-19T02:09:37;15.85;;;14.65;;
15776;SDS011;7989;51.198;6.676;2022-08-19T02:12:06;13.45;;;12.45;;
15776;SDS011;7989;51.198;6.676;2022-08-19T02:14:33;13.45;;;12.35;;
15776;SDS011;7989;51.198;6.676;2022-08-19T02:17:00;14.95;;;13.77;;
15776;SDS011;7989;51.198;6.676;2022-08-19T02:19:27;16.38;;;15.13;;
15776;SDS011;7989;51.198;6.676;2022-08-19T02:21:55;15.60;;;14.50;;
15776;SDS011;7989;51.198;6.676;2022-08-19T02:24:22;15.23;;;13.70;;
15776;SDS011;7989;51.198;6.676;2022-08-19T02:26:48;14.85;;;13.85;;
15776;SDS011;7989;51.198;6.676;2022-08-19T02:29:17;16.90;;;15.43;;
15776;SDS011;7989;51.198;6.676;2022-08-19T02:31:44;18.42;;;16.77;;
15776;SDS011;7989;51.198;6.676;2022-08-19T02:34:11;18.35;;;17.05;;
15776;SDS011;7989;51.198;6.676;2022-08-19T02:36:39;17.13;;;15.73;;
15776;SDS011;7989;51.198;6.676;2022-08-19T02:39:06;16.50;;;15.25;;
15776;SDS011;7989;51.198;6.676;2022-08-19T02:41:32;16.73;;;15.07;;
15776;SDS011;7989;51.198;6.676;2022-08-19T02:44:00;16.38;;;15.10;;
15776;SDS011;7989;51.198;6.676;2022-08-19T02:46:31;16.58;;;15.38;;
15776;SDS011;7989;51.198;6.676;2022-08-19T02:49:01;16.55;;;15.18;;
15776;SDS011;7989;51.198;6.676;2022-08-19T02:51:32;16.75;;;15.45;;
15776;SDS011;7989;51.198;6.676;2022-08-19T02:54:00;16.27;;;15.07;;
15776;SDS011;7989;51.198;6.676;2022-08-19T02:56:28;16.65;;;15.35;;
15776;SDS011;7989;51.198;6.676;2022-08-19T02:58:56;17.55;;;16.25;;
15776;SDS011;7989;51.198;6.676;2022-08-19T03:01:24;17.10;;;15.80;;
15776;SDS011;7989;51.198;6.676;2022-08-19T03:03:54;16.63;;;15.30;;
15776;SDS011;7989;51.198;6.676;2022-08-19T03:06:25;16.58;;;15.30;;
15776;SDS011;7989;51.198;6.676;2022-08-19T03:08:52;16.70;;;15.20;;
15776;SDS011;7989;51.198;6.676;2022-08-19T03:11:20;15.43;;;14.32;;
15776;SDS011;7989;51.198;6.676;2022-08-19T03:13:49;17.25;;;15.70;;
15776;SDS011;7989;51.198;6.676;2022-08-19T03:16:17;15.88;;;14.75;;
15776;SDS011;7989;51.198;6.676;2022-08-19T03:18:44;17.52;;;15.70;;
15776;SDS011;7989;51.198;6.676;2022-08-19T03:21:16;18.05;;;16.60;;
15776;SDS011;7989;51.198;6.676;2022-08-19T03:23:44;16.00;;;14.90;;
15776;SDS011;7989;51.198;6.676;2022-08-19T03:26:11;18.10;;;16.60;;
15776;SDS011;7989;51.198;6.676;2022-08-19T03:28:39;18.02;;;16.55;;
15776;SDS011;7989;51.198;6.676;2022-08-19T03:31:07;17.45;;;16.00;;
15776;SDS011;7989;51.198;6.676;2022-08-19T03:33:37;17.55;;;16.27;;
15776;SDS011;7989;51.198;6.676;2022-08-19T03:36:06;18.23;;;16.92;;
15776;SDS011;7989;51.198;6.676;2022-08-19T03:38:37;18.90;;;17.30;;
15776;SDS011;7989;51.198;6.676;2022-08-19T03:41:06;19.00;;;17.63;;
15776;SDS011;7989;51.198;6.676;2022-08-19T03:43:35;20.42;;;18.67;;
15776;SDS011;7989;51.198;6.676;2022-08-19T03:46:03;18.60;;;17.13;;
15776;SDS011;7989;51.198;6.676;2022-08-19T03:48:32;20.45;;;18.52;;
15776;SDS011;7989;51.198;6.676;2022-08-19T03:50:59;19.98;;;18.33;;
15776;SDS011;7989;51.198;6.676;2022-08-19T03:53:28;21.33;;;19.83;;
15776;SDS011;7989;51.198;6.676;2022-08-19T03:55:58;22.17;;;20.48;;
15776;SDS011;7989;51.198;6.676;2022-08-19T03:58:25;25.88;;;23.88;;
15776;SDS011;7989;51.198;6.676;2022-08-19T04:00:53;25.88;;;23.63;;
15776;SDS011;7989;51.198;6.676;2022-08-19T04:03:21;25.75;;;23.73;;
15776;SDS011;7989;51.198;6.676;2022-08-19T04:05:49;25.30;;;23.30;;
15776;SDS011;7989;51.198;6.676;2022-08-19T04:08:16;29.38;;;26.98;;
15776;SDS011;7989;51.198;6.676;2022-08-19T04:10:45;29.80;;;27.30;;
15776;SDS011;7989;51.198;6.676;2022-08-19T04:13:13;29.02;;;26.25;;
15776;SDS011;7989;51.198;6.676;2022-08-19T04:15:41;31.58;;;28.90;;
15776;SDS011;7989;51.198;6.676;2022-08-19T04:18:10;31.77;;;28.80;;
15776;SDS011;7989;51.198;6.676;2022-08-19T04:20:40;30.58;;;27.98;;
15776;SDS011;7989;51.198;6.676;2022-08-19T04:23:09;34.17;;;30.67;;
15776;SDS011;7989;51.198;6.676;2022-08-19T04:25:37;32.05;;;29.55;;
15776;SDS011;7989;51.198;6.676;2022-08-19T04:28:05;31.80;;;28.85;;
15776;SDS011;7989;51.198;6.676;2022-08-19T04:30:38;32.88;;;30.30;;
15776;SDS011;7989;51.198;6.676;2022-08-19T04:33:06;31.40;;;28.73;;
15776;SDS011;7989;51.198;6.676;2022-08-19T04:35:34;33.03;;;30.42;;
15776;SDS011;7989;51.198;6.676;2022-08-19T04:38:02;34.25;;;31.50;;
15776;SDS011;7989;51.198;6.676;2022-08-19T04:40:29;33.67;;;31.17;;
15776;SDS011;7989;51.198;6.676;2022-08-19T04:43:13;44.90;;;41.38;;
15776;SDS011;7989;51.198;6.676;2022-08-19T04:45:42;44.50;;;40.88;;
15776;SDS011;7989;51.198;6.676;2022-08-19T04:48:09;35.78;;;32.20;;
15776;SDS011;7989;51.198;6.676;2022-08-19T04:50:39;39.40;;;36.10;;
15776;SDS011;7989;51.198;6.676;2022-08-19T04:53:07;35.35;;;32.20;;
15776;SDS011;7989;51.198;6.676;2022-08-19T04:55:34;46.80;;;42.30;;
15776;SDS011;7989;51.198;6.676;2022-08-19T04:58:01;42.70;;;39.17;;
15776;SDS011;7989;51.198;6.676;2022-08-19T05:00:28;56.33;;;51.63;;
15776;SDS011;7989;51.198;6.676;2022-08-19T05:02:57;43.42;;;39.30;;
15776;SDS011;7989;51.198;6.676;2022-08-19T05:05:23;42.42;;;38.95;;
15776;SDS011;7989;51.198;6.676;2022-08-19T05:07:50;41.15;;;37.97;;
15776;SDS011;7989;51.198;6.676;2022-08-19T05:10:17;37.28;;;34.25;;
15776;SDS011;7989;51.198;6.676;2022-08-19T05:12:44;40.25;;;36.92;;
15776;SDS011;7989;51.198;6.676;2022-08-19T05:15:11;46.75;;;42.13;;
15776;SDS011;7989;51.198;6.676;2022-08-19T05:17:38;44.30;;;40.60;;
15776;SDS011;7989;51.198;6.676;2022-08-19T05:20:27;42.28;;;38.97;;
15776;SDS011;7989;51.198;6.676;2022-08-19T05:23:20;37.88;;;34.83;;
15776;SDS011;7989;51.198;6.676;2022-08-19T05:25:47;39.03;;;35.83;;
15776;SDS011;7989;51.198;6.676;2022-08-19T05:28:14;40.53;;;37.38;;
15776;SDS011;7989;51.198;6.676;2022-08-19T05:30:40;40.85;;;37.72;;
15776;SDS011;7989;51.198;6.676;2022-08-19T05:33:10;41.42;;;37.97;;
15776;SDS011;7989;51.198;6.676;2022-08-19T05:35:39;41.53;;;38.28;;
15776;SDS011;7989;51.198;6.676;2022-08-19T05:38:06;40.38;;;37.47;;
15776;SDS011;7989;51.198;6.676;2022-08-19T05:40:33;41.95;;;38.85;;
15776;SDS011;7989;51.198;6.676;2022-08-19T05:43:02;43.78;;;40.17;;
15776;SDS011;7989;51.198;6.676;2022-08-19T05:45:29;43.28;;;39.75;;
15776;SDS011;7989;51.198;6.676;2022-08-19T05:47:56;45.05;;;41.55;;
15776;SDS011;7989;51.198;6.676;2022-08-19T05:50:23;47.78;;;43.80;;
15776;SDS011;7989;51.198;6.676;2022-08-19T05:52:52;47.00;;;42.17;;
15776;SDS011;7989;51.198;6.676;2022-08-19T05:55:19;46.95;;;43.20;;
15776;SDS011;7989;51.198;6.676;2022-08-19T05:57:48;46.75;;;42.97;;
15776;SDS011;7989;51.198;6.676;2022-08-19T06:00:16;45.25;;;41.70;;
15776;SDS011;7989;51.198;6.676;2022-08-19T06:02:43;45.47;;;41.67;;
15776;SDS011;7989;51.198;6.676;2022-08-19T06:05:09;44.15;;;40.60;;
15776;SDS011;7989;51.198;6.676;2022-08-19T06:07:37;49.08;;;44.00;;
15776;SDS011;7989;51.198;6.676;2022-08-19T06:10:07;44.88;;;41.58;;
15776;SDS011;7989;51.198;6.676;2022-08-19T06:12:36;47.25;;;43.65;;
15776;SDS011;7989;51.198;6.676;2022-08-19T06:15:04;46.95;;;43.00;;
15776;SDS011;7989;51.198;6.676;2022-08-19T06:17:33;46.72;;;42.78;;
15776;SDS011;7989;51.198;6.676;2022-08-19T06:20:00;43.67;;;40.28;;
15776;SDS011;7989;51.198;6.676;2022-08-19T06:22:28;43.63;;;40.28;;
15776;SDS011;7989;51.198;6.676;2022-08-19T06:24:55;42.78;;;39.55;;
15776;SDS011;7989;51.198;6.676;2022-08-19T06:27:23;42.60;;;39.38;;
15776;SDS011;7989;51.198;6.676;2022-08-19T06:29:50;44.38;;;40.78;;
15776;SDS011;7989;51.198;6.676;2022-08-19T06:32:17;41.88;;;38.50;;
15776;SDS011;7989;51.198;6.676;2022-08-19T06:34:44;44.72;;;41.17;;
15776;SDS011;7989;51.198;6.676;2022-08-19T06:37:11;43.28;;;39.47;;
15776;SDS011;7989;51.198;6.676;2022-08-19T06:39:40;41.83;;;38.05;;
15776;SDS011;7989;51.198;6.676;2022-08-19T06:42:07;38.17;;;34.90;;
15776;SDS011;7989;51.198;6.676;2022-08-19T06:44:38;37.67;;;34.65;;
15776;SDS011;7989;51.198;6.676;2022-08-19T06:47:07;36.60;;;33.45;;
15776;SDS011;7989;51.198;6.676;2022-08-19T06:49:36;36.45;;;33.80;;
15776;SDS011;7989;51.198;6.676;2022-08-19T06:52:03;40.53;;;37.35;;
15776;SDS011;7989;51.198;6.676;2022-08-19T06:54:31;37.03;;;33.83;;
15776;SDS011;7989;51.198;6.676;2022-08-19T06:56:58;35.67;;;32.40;;
15776;SDS011;7989;51.198;6.676;2022-08-19T06:59:27;38.92;;;35.58;;
15776;SDS011;7989;51.198;6.676;2022-08-19T07:01:59;34.25;;;31.35;;
15776;SDS011;7989;51.198;6.676;2022-08-19T07:04:30;34.88;;;32.03;;
15776;SDS011;7989;51.198;6.676;2022-08-19T07:06:59;33.65;;;30.75;;
15776;SDS011;7989;51.198;6.676;2022-08-19T07:09:27;31.70;;;29.10;;
15776;SDS011;7989;51.198;6.676;2022-08-19T07:11:54;31.25;;;28.75;;
15776;SDS011;7989;51.198;6.676;2022-08-19T07:14:22;29.25;;;26.73;;
15776;SDS011;7989;51.198;6.676;2022-08-19T07:16:51;30.23;;;28.00;;
15776;SDS011;7989;51.198;6.676;2022-08-19T07:19:21;29.40;;;27.13;;
15776;SDS011;7989;51.198;6.676;2022-08-19T07:21:51;30.50;;;27.63;;
15776;SDS011;7989;51.198;6.676;2022-08-19T07:24:19;29.23;;;26.92;;
15776;SDS011;7989;51.198;6.676;2022-08-19T07:26:49;26.05;;;23.90;;
15776;SDS011;7989;51.198;6.676;2022-08-19T07:29:17;26.75;;;24.55;;
15776;SDS011;7989;51.198;6.676;2022-08-19T07:31:46;25.88;;;23.88;;
15776;SDS011;7989;51.198;6.676;2022-08-19T07:34:13;32.22;;;29.58;;
15776;SDS011;7989;51.198;6.676;2022-08-19T07:36:42;28.48;;;26.25;;
15776;SDS011;7989;51.198;6.676;2022-08-19T07:39:10;33.83;;;30.65;;
15776;SDS011;7989;51.198;6.676;2022-08-19T07:41:39;37.55;;;34.25;;
15776;SDS011;7989;51.198;6.676;2022-08-19T07:44:07;33.85;;;31.15;;
15776;SDS011;7989;51.198;6.676;2022-08-19T07:46:34;35.10;;;32.10;;
15776;SDS011;7989;51.198;6.676;2022-08-19T07:49:03;37.08;;;33.78;;
15776;SDS011;7989;51.198;6.676;2022-08-19T07:51:31;38.65;;;35.40;;
15776;SDS011;7989;51.198;6.676;2022-08-19T07:54:00;42.03;;;36.38;;
15776;SDS011;7989;51.198;6.676;2022-08-19T07:56:27;42.03;;;38.45;;
15776;SDS011;7989;51.198;6.676;2022-08-19T07:58:54;43.55;;;39.55;;
15776;SDS011;7989;51.198;6.676;2022-08-19T08:01:21;49.35;;;45.05;;
15776;SDS011;7989;51.198;6.676;2022-08-19T08:03:51;50.00;;;45.67;;
15776;SDS011;7989;51.198;6.676;2022-08-19T08:06:39;48.80;;;44.42;;
15776;SDS011;7989;51.198;6.676;2022-08-19T08:09:31;50.40;;;45.60;;
15776;SDS011;7989;51.198;6.676;2022-08-19T08:12:00;49.88;;;45.17;;
15776;SDS011;7989;51.198;6.676;2022-08-19T08:14:30;49.08;;;44.90;;
15776;SDS011;7989;51.198;6.676;2022-08-19T08:17:00;45.28;;;41.33;;
15776;SDS011;7989;51.198;6.676;2022-08-19T08:19:27;46.47;;;41.97;;
15776;SDS011;7989;51.198;6.676;2022-08-19T08:21:55;49.35;;;44.88;;
15776;SDS011;7989;51.198;6.676;2022-08-19T08:24:23;46.33;;;42.28;;
15776;SDS011;7989;51.198;6.676;2022-08-19T08:26:52;47.55;;;43.25;;
15776;SDS011;7989;51.198;6.676;2022-08-19T08:29:19;46.08;;;41.55;;
15776;SDS011;7989;51.198;6.676;2022-08-19T08:31:46;42.40;;;38.83;;
15776;SDS011;7989;51.198;6.676;2022-08-19T08:34:14;41.10;;;37.53;;
15776;SDS011;7989;51.198;6.676;2022-08-19T08:36:42;40.05;;;36.75;;
15776;SDS011;7989;51.198;6.676;2022-08-19T08:39:10;43.88;;;39.83;;
15776;SDS011;7989;51.198;6.676;2022-08-19T08:41:41;40.75;;;37.30;;
15776;SDS011;7989;51.198;6.676;2022-08-19T08:44:16;38.05;;;34.92;;
15776;SDS011;7989;51.198;6.676;2022-08-19T08:46:48;38.75;;;34.78;;
15776;SDS011;7989;51.198;6.676;2022-08-19T08:49:21;37.05;;;33.88;;
15776;SDS011;7989;51.198;6.676;2022-08-19T08:51:57;36.45;;;33.30;;
15776;SDS011;7989;51.198;6.676;2022-08-19T08:54:30;36.80;;;33.75;;
15776;SDS011;7989;51.198;6.676;2022-08-19T08:57:02;32.05;;;29.25;;
15776;SDS011;7989;51.198;6.676;2022-08-19T08:59:35;31.52;;;28.92;;
15776;SDS011;7989;51.198;6.676;2022-08-19T09:02:05;31.85;;;28.88;;
15776;SDS011;7989;51.198;6.676;2022-08-19T09:04:33;31.10;;;28.30;;
15776;SDS011;7989;51.198;6.676;2022-08-19T09:07:07;31.27;;;28.52;;
15776;SDS011;7989;51.198;6.676;2022-08-19T09:09:45;27.58;;;25.33;;
15776;SDS011;7989;51.198;6.676;2022-08-19T09:12:17;20.77;;;18.90;;
15776;SDS011;7989;51.198;6.676;2022-08-19T09:14:52;25.20;;;22.92;;
15776;SDS011;7989;51.198;6.676;2022-08-19T09:17:23;22.88;;;20.70;;
15776;SDS011;7989;51.198;6.676;2022-08-19T09:19:56;24.15;;;22.00;;
15776;SDS011;7989;51.198;6.676;2022-08-19T09:22:25;20.60;;;18.83;;
15776;SDS011;7989;51.198;6.676;2022-08-19T09:24:52;22.38;;;20.55;;
15776;SDS011;7989;51.198;6.676;2022-08-19T09:27:20;21.58;;;19.88;;
15776;SDS011;7989;51.198;6.676;2022-08-19T09:29:48;26.30;;;17.85;;
15776;SDS011;7989;51.198;6.676;2022-08-19T09:32:17;20.30;;;18.42;;
15776;SDS011;7989;51.198;6.676;2022-08-19T09:34:44;22.65;;;20.35;;
15776;SDS011;7989;51.198;6.676;2022-08-19T09:37:11;22.13;;;20.02;;
15776;SDS011;7989;51.198;6.676;2022-08-19T09:39:38;19.23;;;17.63;;
15776;SDS011;7989;51.198;6.676;2022-08-19T09:42:07;20.40;;;18.60;;
15776;SDS011;7989;51.198;6.676;2022-08-19T09:44:37;18.52;;;16.83;;
15776;SDS011;7989;51.198;6.676;2022-08-19T09:47:04;19.17;;;16.38;;
15776;SDS011;7989;51.198;6.676;2022-08-19T09:49:33;16.67;;;15.13;;
15776;SDS011;7989;51.198;6.676;2022-08-19T09:52:00;20.60;;;18.80;;
15776;SDS011;7989;51.198;6.676;2022-08-19T09:54:27;17.30;;;15.88;;
15776;SDS011;7989;51.198;6.676;2022-08-19T09:56:54;18.20;;;16.60;;
15776;SDS011;7989;51.198;6.676;2022-08-19T09:59:25;18.75;;;16.95;;
15776;SDS011;7989;51.198;6.676;2022-08-19T10:01:52;17.52;;;16.02;;
15776;SDS011;7989;51.198;6.676;2022-08-19T10:04:19;15.27;;;13.63;;
15776;SDS011;7989;51.198;6.676;2022-08-19T10:06:49;17.42;;;15.65;;
15776;SDS011;7989;51.198;6.676;2022-08-19T10:09:17;14.77;;;13.68;;
15776;SDS011;7989;51.198;6.676;2022-08-19T10:11:44;14.82;;;13.43;;
15776;SDS011;7989;51.198;6.676;2022-08-19T10:14:13;15.55;;;14.07;;
15776;SDS011;7989;51.198;6.676;2022-08-19T10:16:40;16.30;;;15.00;;
15776;SDS011;7989;51.198;6.676;2022-08-19T10:19:07;14.77;;;13.35;;
15776;SDS011;7989;51.198;6.676;2022-08-19T10:21:35;14.60;;;11.50;;
15776;SDS011;7989;51.198;6.676;2022-08-19T10:24:04;15.00;;;11.13;;
15776;SDS011;7989;51.198;6.676;2022-08-19T10:26:35;13.30;;;12.10;;
15776;SDS011;7989;51.198;6.676;2022-08-19T10:29:03;13.68;;;11.07;;
15776;SDS011;7989;51.198;6.676;2022-08-19T10:31:32;13.05;;;12.02;;
15776;SDS011;7989;51.198;6.676;2022-08-19T10:34:00;11.13;;;10.07;;
15776;SDS011;7989;51.198;6.676;2022-08-19T10:36:28;11.00;;;9.90;;
15776;SDS011;7989;51.198;6.676;2022-08-19T10:38:57;12.77;;;11.70;;
15776;SDS011;7989;51.198;6.676;2022-08-19T10:41:28;14.00;;;12.65;;
15776;SDS011;7989;51.198;6.676;2022-08-19T10:43:56;15.60;;;13.73;;
15776;SDS011;7989;51.198;6.676;2022-08-19T10:46:25;11.85;;;10.73;;
15776;SDS011;7989;51.198;6.676;2022-08-19T10:48:57;11.70;;;10.60;;
15776;SDS011;7989;51.198;6.676;2022-08-19T10:51:25;15.65;;;14.07;;
15776;SDS011;7989;51.198;6.676;2022-08-19T10:54:10;12.32;;;11.07;;
15776;SDS011;7989;51.198;6.676;2022-08-19T10:56:38;28.58;;;22.48;;
15776;SDS011;7989;51.198;6.676;2022-08-19T10:59:17;22.67;;;20.67;;
15776;SDS011;7989;51.198;6.676;2022-08-19T11:01:45;17.65;;;13.35;;
15776;SDS011;7989;51.198;6.676;2022-08-19T11:04:13;13.65;;;12.50;;
15776;SDS011;7989;51.198;6.676;2022-08-19T11:06:42;13.27;;;12.02;;
15776;SDS011;7989;51.198;6.676;2022-08-19T11:09:10;14.30;;;12.38;;
15776;SDS011;7989;51.198;6.676;2022-08-19T11:11:38;15.00;;;13.48;;
15776;SDS011;7989;51.198;6.676;2022-08-19T11:14:06;13.50;;;12.20;;
15776;SDS011;7989;51.198;6.676;2022-08-19T11:16:34;11.60;;;10.38;;
15776;SDS011;7989;51.198;6.676;2022-08-19T11:19:03;13.05;;;10.13;;
15776;SDS011;7989;51.198;6.676;2022-08-19T11:21:31;12.25;;;11.13;;
15776;SDS011;7989;51.198;6.676;2022-08-19T11:24:00;11.43;;;9.40;;
15776;SDS011;7989;51.198;6.676;2022-08-19T11:26:29;10.18;;;9.32;;
15776;SDS011;7989;51.198;6.676;2022-08-19T11:28:58;11.20;;;10.00;;
15776;SDS011;7989;51.198;6.676;2022-08-19T11:31:26;9.13;;;8.35;;
15776;SDS011;7989;51.198;6.676;2022-08-19T11:33:55;10.63;;;9.77;;
15776;SDS011;7989;51.198;6.676;2022-08-19T11:36:22;12.73;;;8.57;;
15776;SDS011;7989;51.198;6.676;2022-08-19T11:38:49;11.85;;;10.57;;
15776;SDS011;7989;51.198;6.676;2022-08-19T11:41:17;9.45;;;8.45;;
15776;SDS011;7989;51.198;6.676;2022-08-19T11:43:45;10.52;;;9.55;;
15776;SDS011;7989;51.198;6.676;2022-08-19T11:46:14;12.13;;;11.05;;
15776;SDS011;7989;51.198;6.676;2022-08-19T11:48:42;12.23;;;9.23;;
15776;SDS011;7989;51.198;6.676;2022-08-19T11:51:10;11.88;;;10.77;;
15776;SDS011;7989;51.198;6.676;2022-08-19T11:53:39;12.77;;;11.25;;
15776;SDS011;7989;51.198;6.676;2022-08-19T11:56:07;10.85;;;9.75;;
15776;SDS011;7989;51.198;6.676;2022-08-19T11:58:35;10.05;;;9.15;;
15776;SDS011;7989;51.198;6.676;2022-08-19T12:01:04;9.65;;;8.75;;
15776;SDS011;7989;51.198;6.676;2022-08-19T12:03:34;9.80;;;8.88;;
15776;SDS011;7989;51.198;6.676;2022-08-19T12:06:03;10.95;;;9.32;;
15776;SDS011;7989;51.198;6.676;2022-08-19T12:08:31;11.05;;;10.15;;
15776;SDS011;7989;51.198;6.676;2022-08-19T12:10:57;8.55;;;7.95;;
15776;SDS011;7989;51.198;6.676;2022-08-19T12:13:25;9.88;;;8.98;;
15776;SDS011;7989;51.198;6.676;2022-08-19T12:15:53;9.45;;;8.20;;
15776;SDS011;7989;51.198;6.676;2022-08-19T12:18:20;9.90;;;8.90;;
15776;SDS011;7989;51.198;6.676;2022-08-19T12:20:52;12.50;;;11.23;;
15776;SDS011;7989;51.198;6.676;2022-08-19T12:23:21;7.40;;;6.70;;
15776;SDS011;7989;51.198;6.676;2022-08-19T12:25:48;15.45;;;13.95;;
15776;SDS011;7989;51.198;6.676;2022-08-19T12:28:16;10.68;;;9.15;;
15776;SDS011;7989;51.198;6.676;2022-08-19T12:30:44;6.32;;;5.40;;
15776;SDS011;7989;51.198;6.676;2022-08-19T12:33:11;7.68;;;5.90;;
15776;SDS011;7989;51.198;6.676;2022-08-19T12:35:39;6.07;;;5.00;;
15776;SDS011;7989;51.198;6.676;2022-08-19T12:38:08;8.57;;;6.40;;
15776;SDS011;7989;51.198;6.676;2022-08-19T12:40:35;8.20;;;6.18;;
15776;SDS011;7989;51.198;6.676;2022-08-19T12:43:02;6.90;;;5.80;;
15776;SDS011;7989;51.198;6.676;2022-08-19T12:45:29;6.10;;;5.50;;
15776;SDS011;7989;51.198;6.676;2022-08-19T12:47:56;7.93;;;7.07;;
15776;SDS011;7989;51.198;6.676;2022-08-19T12:50:23;8.20;;;7.38;;
15776;SDS011;7989;51.198;6.676;2022-08-19T12:52:50;7.57;;;6.32;;
15776;SDS011;7989;51.198;6.676;2022-08-19T12:55:18;6.00;;;5.50;;
15776;SDS011;7989;51.198;6.676;2022-08-19T12:57:45;5.93;;;5.40;;
15776;SDS011;7989;51.198;6.676;2022-08-19T13:00:14;7.18;;;4.63;;
15776;SDS011;7989;51.198;6.676;2022-08-19T13:02:44;6.68;;;4.60;;
15776;SDS011;7989;51.198;6.676;2022-08-19T13:05:12;6.20;;;5.50;;
15776;SDS011;7989;51.198;6.676;2022-08-19T13:07:40;5.85;;;5.25;;
15776;SDS011;7989;51.198;6.676;2022-08-19T13:10:09;7.85;;;4.75;;
15776;SDS011;7989;51.198;6.676;2022-08-19T13:12:39;5.85;;;4.65;;
15776;SDS011;7989;51.198;6.676;2022-08-19T13:15:07;7.18;;;4.38;;
15776;SDS011;7989;51.198;6.676;2022-08-19T13:17:34;5.63;;;4.93;;
15776;SDS011;7989;51.198;6.676;2022-08-19T13:20:01;6.10;;;5.22;;
15776;SDS011;7989;51.198;6.676;2022-08-19T13:22:29;7.05;;;4.95;;
15776;SDS011;7989;51.198;6.676;2022-08-19T13:24:56;12.45;;;11.40;;
15776;SDS011;7989;51.198;6.676;2022-08-19T13:27:23;5.00;;;4.22;;
15776;SDS011;7989;51.198;6.676;2022-08-19T13:29:51;14.85;;;4.90;;
15776;SDS011;7989;51.198;6.676;2022-08-19T13:32:36;5.75;;;4.65;;
15776;SDS011;7989;51.198;6.676;2022-08-19T13:35:20;9.57;;;5.25;;
15776;SDS011;7989;51.198;6.676;2022-08-19T13:37:47;6.63;;;5.65;;
15776;SDS011;7989;51.198;6.676;2022-08-19T13:40:14;6.78;;;4.88;;
15776;SDS011;7989;51.198;6.676;2022-08-19T13:42:43;6.38;;;4.63;;
15776;SDS011;7989;51.198;6.676;2022-08-19T13:45:14;5.22;;;4.13;;
15776;SDS011;7989;51.198;6.676;2022-08-19T13:47:44;8.30;;;4.40;;
15776;SDS011;7989;51.198;6.676;2022-08-19T13:50:12;6.07;;;3.95;;
15776;SDS011;7989;51.198;6.676;2022-08-19T13:52:40;5.25;;;4.70;;
15776;SDS011;7989;51.198;6.676;2022-08-19T13:55:08;8.30;;;4.68;;
15776;SDS011;7989;51.198;6.676;2022-08-19T13:57:36;5.05;;;3.75;;
15776;SDS011;7989;51.198;6.676;2022-08-19T14:00:04;6.57;;;3.15;;
15776;SDS011;7989;51.198;6.676;2022-08-19T14:02:36;5.80;;;5.15;;
15776;SDS011;7989;51.198;6.676;2022-08-19T14:05:04;4.30;;;3.80;;
15776;SDS011;7989;51.198;6.676;2022-08-19T14:07:32;4.85;;;3.75;;
15776;SDS011;7989;51.198;6.676;2022-08-19T14:09:59;3.83;;;3.20;;
15776;SDS011;7989;51.198;6.676;2022-08-19T14:12:25;8.15;;;4.05;;
15776;SDS011;7989;51.198;6.676;2022-08-19T14:14:52;4.47;;;3.33;;
15776;SDS011;7989;51.198;6.676;2022-08-19T14:17:19;4.57;;;3.17;;
15776;SDS011;7989;51.198;6.676;2022-08-19T14:19:47;3.50;;;3.03;;
15776;SDS011;7989;51.198;6.676;2022-08-19T14:22:14;4.50;;;3.50;;
15776;SDS011;7989;51.198;6.676;2022-08-19T14:24:41;4.53;;;3.05;;
15776;SDS011;7989;51.198;6.676;2022-08-19T14:27:08;5.45;;;3.25;;
15776;SDS011;7989;51.198;6.676;2022-08-19T14:29:35;7.75;;;3.15;;
15776;SDS011;7989;51.198;6.676;2022-08-19T14:32:02;8.60;;;3.50;;
15776;SDS011;7989;51.198;6.676;2022-08-19T14:34:29;10.57;;;3.72;;
15776;SDS011;7989;51.198;6.676;2022-08-19T14:37:00;5.70;;;4.60;;
15776;SDS011;7989;51.198;6.676;2022-08-19T14:39:26;7.70;;;3.50;;
15776;SDS011;7989;51.198;6.676;2022-08-19T14:41:53;6.85;;;3.80;;
15776;SDS011;7989;51.198;6.676;2022-08-19T14:44:21;14.95;;;5.53;;
15776;SDS011;7989;51.198;6.676;2022-08-19T14:46:48;5.63;;;3.13;;
15776;SDS011;7989;51.198;6.676;2022-08-19T14:49:14;6.85;;;3.53;;